createdAt,value
2022-11-18T00:01:33.274Z,0.80
2022-11-18T00:04:03.617Z,0.70
2022-11-18T00:06:32.286Z,1.00
2022-11-18T00:09:01.846Z,0.63
2022-11-18T00:11:50.804Z,0.80
2022-11-18T00:14:23.149Z,0.73
2022-11-18T00:16:55.455Z,0.63
2022-11-18T00:19:27.671Z,0.60
2022-11-18T00:21:56.564Z,0.60
2022-11-18T00:24:25.795Z,0.73
2022-11-18T00:26:54.725Z,1.10
2022-11-18T00:29:26.262Z,1.03
2022-11-18T00:31:54.747Z,0.50
2022-11-18T00:34:25.389Z,0.70
2022-11-18T00:36:54.172Z,0.70
2022-11-18T00:39:23.128Z,0.50
2022-11-18T00:42:08.990Z,0.70
2022-11-18T00:44:37.617Z,0.43
2022-11-18T00:47:06.960Z,0.50
2022-11-18T00:49:36.748Z,0.60
2022-11-18T00:52:06.390Z,0.57
2022-11-18T00:54:34.972Z,0.63
2022-11-18T00:57:04.169Z,0.50
2022-11-18T00:59:32.636Z,0.83
2022-11-18T01:02:01.312Z,0.63
2022-11-18T01:04:29.963Z,0.80
2022-11-18T01:06:59.890Z,0.70
2022-11-18T01:09:30.162Z,0.70
2022-11-18T01:12:16.508Z,0.60
2022-11-18T01:14:45.184Z,0.67
2022-11-18T01:17:14.206Z,0.57
2022-11-18T01:19:42.689Z,0.70
2022-11-18T01:22:12.822Z,0.63
2022-11-18T01:24:41.320Z,0.60
2022-11-18T01:27:09.819Z,0.63
2022-11-18T01:29:38.349Z,1.00
2022-11-18T01:32:24.900Z,0.70
2022-11-18T01:34:53.881Z,0.80
2022-11-18T01:37:23.921Z,0.70
2022-11-18T01:39:52.494Z,0.60
2022-11-18T01:42:20.922Z,0.77
2022-11-18T01:45:02.163Z,0.60
2022-11-18T01:47:36.282Z,0.77
2022-11-18T01:50:07.171Z,0.53
2022-11-18T01:52:38.394Z,0.73
2022-11-18T01:55:14.390Z,0.80
2022-11-18T01:57:43.847Z,0.80
2022-11-18T02:00:14.430Z,0.70
2022-11-18T02:02:43.451Z,0.60
2022-11-18T02:05:12.947Z,0.63
2022-11-18T02:07:44.511Z,0.73
2022-11-18T02:10:22.394Z,0.70
2022-11-18T02:12:52.688Z,0.80
2022-11-18T02:15:33.463Z,0.80
2022-11-18T02:18:13.303Z,0.60
2022-11-18T02:20:43.688Z,0.60
2022-11-18T02:24:03.614Z,0.53
2022-11-18T02:27:09.912Z,0.47
2022-11-18T02:29:45.512Z,0.60
2022-11-18T02:32:18.784Z,0.50
2022-11-18T02:34:52.710Z,0.40
2022-11-18T02:37:31.298Z,0.80
2022-11-18T02:40:03.933Z,0.60
2022-11-18T02:42:36.357Z,0.47
2022-11-18T02:45:12.790Z,0.40
2022-11-18T02:47:43.941Z,0.50
2022-11-18T02:50:17.811Z,0.60
2022-11-18T02:52:48.351Z,0.40
2022-11-18T02:55:18.282Z,0.57
2022-11-18T02:57:47.789Z,0.50
2022-11-18T03:00:19.422Z,0.40
2022-11-18T03:02:51.039Z,0.40
2022-11-18T03:05:28.908Z,0.40
2022-11-18T03:08:06.754Z,0.40
2022-11-18T03:10:43.679Z,0.60
2022-11-18T03:13:23.281Z,0.50
2022-11-18T03:16:00.337Z,0.43
2022-11-18T03:18:35.323Z,0.50
2022-11-18T03:21:12.364Z,0.50
2022-11-18T03:23:47.302Z,0.50
2022-11-18T03:26:23.359Z,0.43
2022-11-18T03:28:57.609Z,0.40
2022-11-18T03:31:32.702Z,0.40
2022-11-18T03:34:07.206Z,0.40
2022-11-18T03:36:42.123Z,0.50
2022-11-18T03:39:13.513Z,0.47
2022-11-18T03:41:47.571Z,0.60
2022-11-18T03:44:22.985Z,0.50
2022-11-18T03:46:58.137Z,0.70
2022-11-18T03:49:34.903Z,0.43
2022-11-18T03:52:09.104Z,0.50
2022-11-18T03:54:39.959Z,0.90
2022-11-18T03:57:13.690Z,0.50
2022-11-18T03:59:48.920Z,0.90
2022-11-18T04:02:21.988Z,0.67
2022-11-18T04:04:53.624Z,0.70
2022-11-18T04:07:27.666Z,0.67
2022-11-18T04:10:01.316Z,0.43
2022-11-18T04:12:34.716Z,0.50
2022-11-18T04:15:03.244Z,0.60
2022-11-18T04:17:33.053Z,0.80
2022-11-18T04:20:01.621Z,0.60
2022-11-18T04:22:30.263Z,0.63
2022-11-18T04:24:58.667Z,0.80
2022-11-18T04:27:27.363Z,0.87
2022-11-18T04:29:55.807Z,0.80
2022-11-18T04:32:24.110Z,0.80
2022-11-18T04:34:54.052Z,0.77
2022-11-18T04:37:22.593Z,1.00
2022-11-18T04:39:51.205Z,0.80
2022-11-18T04:42:19.747Z,0.70
2022-11-18T04:44:48.282Z,0.80
2022-11-18T04:47:16.681Z,0.83
2022-11-18T04:49:45.180Z,0.73
2022-11-18T04:52:15.374Z,0.50
2022-11-18T04:54:44.048Z,0.93
2022-11-18T04:57:13.108Z,0.73
2022-11-18T04:59:41.557Z,0.77
2022-11-18T05:02:10.671Z,0.83
2022-11-18T05:04:39.147Z,0.70
2022-11-18T05:07:08.326Z,0.80
2022-11-18T05:09:38.504Z,0.80
2022-11-18T05:12:24.916Z,0.80
2022-11-18T05:14:53.289Z,0.93
2022-11-18T05:17:21.694Z,0.70
2022-11-18T05:19:50.273Z,1.00
2022-11-18T05:22:18.761Z,0.90
2022-11-18T05:24:49.230Z,1.00
2022-11-18T05:27:17.764Z,0.90
2022-11-18T05:29:46.273Z,0.90
2022-11-18T05:32:14.703Z,0.70
2022-11-18T05:34:43.998Z,1.00
2022-11-18T05:37:13.126Z,0.80
2022-11-18T05:39:41.805Z,0.83
2022-11-18T05:42:29.281Z,0.70
2022-11-18T05:44:58.864Z,0.80
2022-11-18T05:47:28.050Z,0.80
2022-11-18T05:49:56.423Z,0.97
2022-11-18T05:52:24.842Z,0.70
2022-11-18T05:54:53.396Z,0.77
2022-11-18T05:57:23.080Z,0.67
2022-11-18T05:59:51.512Z,0.83
2022-11-18T06:02:24.701Z,0.83
2022-11-18T06:04:59.341Z,0.80
2022-11-18T06:07:34.313Z,1.20
2022-11-18T06:10:08.617Z,1.10
2022-11-18T06:12:43.061Z,0.90
2022-11-18T06:15:16.941Z,0.73
2022-11-18T06:17:50.966Z,0.80
2022-11-18T06:20:23.521Z,1.00
2022-11-18T06:22:56.002Z,0.80
2022-11-18T06:25:24.786Z,0.90
2022-11-18T06:27:57.677Z,0.80
2022-11-18T06:30:26.181Z,0.80
2022-11-18T06:32:54.630Z,1.00
2022-11-18T06:35:23.198Z,0.80
2022-11-18T06:37:51.604Z,1.00
2022-11-18T06:40:20.460Z,0.90
2022-11-18T06:43:06.933Z,1.27
2022-11-18T06:45:37.002Z,1.00
2022-11-18T06:48:05.599Z,0.90
2022-11-18T06:50:34.115Z,1.00
2022-11-18T06:53:02.606Z,1.20
2022-11-18T06:55:31.269Z,1.10
2022-11-18T06:58:00.159Z,1.10
2022-11-18T07:00:28.521Z,0.97
2022-11-18T07:02:58.365Z,0.90
2022-11-18T07:05:27.120Z,0.93
2022-11-18T07:07:55.704Z,1.00
2022-11-18T07:10:24.051Z,0.90
2022-11-18T07:12:52.545Z,3.80
2022-11-18T07:15:21.423Z,3.00
2022-11-18T07:17:50.031Z,2.50
2022-11-18T07:20:22.544Z,2.80
2022-11-18T07:22:54.095Z,3.60
2022-11-18T07:25:22.536Z,8.67
2022-11-18T07:27:51.160Z,8.17
2022-11-18T07:30:19.983Z,7.40
2022-11-18T07:32:48.570Z,5.97
2022-11-18T07:35:18.841Z,8.20
2022-11-18T07:37:48.672Z,5.67
2022-11-18T07:40:17.323Z,5.30
2022-11-18T07:42:45.993Z,5.30
2022-11-18T07:45:24.916Z,4.23
2022-11-18T07:47:53.459Z,4.23
2022-11-18T07:50:22.014Z,2.83
2022-11-18T07:52:53.671Z,2.20
2022-11-18T07:55:22.309Z,2.10
2022-11-18T07:57:50.726Z,1.90
2022-11-18T08:00:20.383Z,1.73
2022-11-18T08:02:52.223Z,2.47
2022-11-18T08:05:20.689Z,2.30
2022-11-18T08:07:49.264Z,1.60
2022-11-18T08:10:19.471Z,1.60
2022-11-18T08:12:48.195Z,1.27
2022-11-18T08:15:16.724Z,1.63
2022-11-18T08:17:45.267Z,2.63
2022-11-18T08:20:13.878Z,2.57
2022-11-18T08:22:42.372Z,1.93
2022-11-18T08:25:11.224Z,1.70
2022-11-18T08:27:41.313Z,1.67
2022-11-18T08:30:11.879Z,1.30
2022-11-18T08:32:40.379Z,1.23
2022-11-18T08:35:14.741Z,1.50
2022-11-18T08:37:43.809Z,1.17
2022-11-18T08:40:13.513Z,1.73
2022-11-18T08:42:43.722Z,1.50
2022-11-18T08:45:12.980Z,1.50
2022-11-18T08:47:41.516Z,1.40
2022-11-18T08:50:12.554Z,1.50
2022-11-18T08:52:40.914Z,1.40
2022-11-18T08:55:10.204Z,1.13
2022-11-18T08:57:39.155Z,1.40
2022-11-18T09:00:12.179Z,1.20
2022-11-18T09:02:41.861Z,1.63
2022-11-18T09:05:10.341Z,1.30
2022-11-18T09:07:38.756Z,1.30
2022-11-18T09:10:08.526Z,1.67
2022-11-18T09:12:37.396Z,1.33
2022-11-18T09:15:13.981Z,1.43
2022-11-18T09:17:43.224Z,1.50
2022-11-18T09:20:12.319Z,1.00
2022-11-18T09:22:41.026Z,1.20
2022-11-18T09:25:11.002Z,1.10
2022-11-18T09:27:39.429Z,1.30
2022-11-18T09:30:11.380Z,1.37
2022-11-18T09:32:39.809Z,1.17
2022-11-18T09:35:08.539Z,1.20
2022-11-18T09:37:36.926Z,1.27
2022-11-18T09:40:06.766Z,1.37
2022-11-18T09:42:52.176Z,1.33
2022-11-18T09:45:28.350Z,1.27
2022-11-18T09:47:59.778Z,1.70
2022-11-18T09:53:22.725Z,1.40
2022-11-18T09:55:53.444Z,1.33
2022-11-18T09:58:35.455Z,1.40
2022-11-18T10:01:13.704Z,1.27
2022-11-18T10:03:43.252Z,1.40
2022-11-18T10:06:23.975Z,1.33
2022-11-18T10:09:06.751Z,1.27
2022-11-18T10:11:46.244Z,1.27
2022-11-18T10:14:31.895Z,1.77
2022-11-18T10:17:09.995Z,1.33
2022-11-18T10:19:45.324Z,1.43
2022-11-18T10:22:24.756Z,1.57
2022-11-18T10:24:55.479Z,1.47
2022-11-18T10:27:35.821Z,1.50
2022-11-18T10:30:13.079Z,1.20
2022-11-18T10:32:57.967Z,1.80
2022-11-18T10:35:33.262Z,1.47
2022-11-18T10:38:08.533Z,1.20
2022-11-18T10:40:43.765Z,1.20
2022-11-18T10:43:13.449Z,1.50
2022-11-18T10:45:42.470Z,1.33
2022-11-18T10:48:19.863Z,1.50
2022-11-18T10:50:55.593Z,1.33
2022-11-18T10:53:33.526Z,1.60
2022-11-18T10:56:04.573Z,1.47
2022-11-18T10:58:37.528Z,1.27
2022-11-18T11:01:07.979Z,1.23
2022-11-18T11:03:40.117Z,1.00
2022-11-18T11:06:33.712Z,1.10
2022-11-18T11:09:07.309Z,1.00
2022-11-18T11:11:39.981Z,1.00
2022-11-18T11:14:20.210Z,0.90
2022-11-18T11:16:58.526Z,1.23
2022-11-18T11:19:38.502Z,1.50
2022-11-18T11:22:12.135Z,1.50
2022-11-18T11:24:40.976Z,1.30
2022-11-18T11:30:24.481Z,1.47
2022-11-18T11:33:32.228Z,1.07
2022-11-18T11:36:18.485Z,1.17
2022-11-18T11:39:04.342Z,1.20
2022-11-18T11:41:44.991Z,1.73
2022-11-18T11:44:36.659Z,1.10
2022-11-18T11:47:38.304Z,1.10
2022-11-18T11:50:20.382Z,1.03
2022-11-18T11:53:15.018Z,1.30
2022-11-18T11:55:58.364Z,1.70
2022-11-18T11:58:48.093Z,2.13
2022-11-18T12:01:23.836Z,1.40
2022-11-18T12:03:58.582Z,1.20
2022-11-18T12:06:27.355Z,1.20
2022-11-18T12:09:09.297Z,1.20
2022-11-18T12:11:45.216Z,0.93
2022-11-18T12:14:26.635Z,1.03
2022-11-18T12:17:06.154Z,1.20
2022-11-18T12:19:40.313Z,1.40
2022-11-18T12:22:08.708Z,1.10
2022-11-18T12:24:40.666Z,1.03
2022-11-18T12:27:16.001Z,0.93
2022-11-18T12:29:56.238Z,0.87
2022-11-18T12:32:42.591Z,1.10
2022-11-18T12:35:28.749Z,0.87
2022-11-18T12:38:03.301Z,0.80
2022-11-18T12:40:44.801Z,0.93
2022-11-18T12:44:06.147Z,0.67
2022-11-18T12:46:59.057Z,0.93
2022-11-18T12:50:12.604Z,1.00
2022-11-18T12:52:53.673Z,1.00
2022-11-18T12:55:34.462Z,1.00
2022-11-18T12:58:04.451Z,1.07
2022-11-18T13:00:52.258Z,1.27
2022-11-18T13:03:31.790Z,0.90
2022-11-18T13:06:03.742Z,1.00
2022-11-18T13:08:32.273Z,1.13
2022-11-18T13:11:33.608Z,0.83
2022-11-18T13:14:23.600Z,1.00
2022-11-18T13:17:09.952Z,0.90
2022-11-18T13:19:38.417Z,0.83
2022-11-18T13:22:37.034Z,0.80
2022-11-18T13:25:05.783Z,1.17
2022-11-18T13:27:47.591Z,0.87
2022-11-18T13:30:19.328Z,0.90
2022-11-18T13:32:49.293Z,0.70
2022-11-18T13:35:21.409Z,1.00
2022-11-18T13:37:52.888Z,0.87
2022-11-18T13:40:26.272Z,0.90
2022-11-18T13:42:54.984Z,0.97
2022-11-18T13:45:28.047Z,0.97
2022-11-18T13:48:03.551Z,0.73
2022-11-18T13:50:37.099Z,0.90
2022-11-18T13:53:18.996Z,1.00
2022-11-18T13:55:51.572Z,1.20
2022-11-18T13:59:10.527Z,0.97
2022-11-18T14:01:33.230Z,0.77
2022-11-18T14:04:04.226Z,0.77
2022-11-18T14:06:35.509Z,0.87
2022-11-18T14:09:24.926Z,0.70
2022-11-18T14:12:01.833Z,0.90
2022-11-18T14:14:33.906Z,0.60
2022-11-18T14:17:18.395Z,0.50
2022-11-18T14:19:48.871Z,0.70
2022-11-18T14:22:21.143Z,1.00
2022-11-18T14:24:57.631Z,1.03
2022-11-18T14:27:42.364Z,0.87
2022-11-18T14:30:35.109Z,1.37
2022-11-18T14:33:24.167Z,0.80
2022-11-18T14:35:56.866Z,1.20
2022-11-18T14:41:45.092Z,0.90
2022-11-18T14:44:14.825Z,1.00
2022-11-18T14:46:46.275Z,1.30
2022-11-18T14:49:19.997Z,1.10
2022-11-18T14:51:49.345Z,0.77
2022-11-18T14:54:25.924Z,1.00
2022-11-18T14:56:57.805Z,1.00
2022-11-18T14:59:26.224Z,0.97
2022-11-18T15:01:56.393Z,1.23
2022-11-18T15:04:26.542Z,0.90
2022-11-18T15:06:55.147Z,0.83
2022-11-18T15:09:23.800Z,1.37
2022-11-18T15:11:52.786Z,1.37
2022-11-18T15:14:21.782Z,2.53
2022-11-18T15:16:50.368Z,1.90
2022-11-18T15:19:19.017Z,1.57
2022-11-18T15:21:49.357Z,1.30
2022-11-18T15:24:18.183Z,1.03
2022-11-18T15:26:48.641Z,1.43
2022-11-18T15:29:20.293Z,1.60
2022-11-18T15:31:49.586Z,1.20
2022-11-18T15:34:21.684Z,1.60
2022-11-18T15:36:51.783Z,1.30
2022-11-18T15:39:20.608Z,1.13
2022-11-18T15:41:48.980Z,1.20
2022-11-18T15:44:18.061Z,1.03
2022-11-18T15:46:48.009Z,0.97
2022-11-18T15:49:17.881Z,1.67
2022-11-18T15:51:46.497Z,1.40
2022-11-18T15:54:16.972Z,1.23
2022-11-18T15:56:45.829Z,1.30
2022-11-18T15:59:16.501Z,1.37
2022-11-18T16:01:47.249Z,1.40
2022-11-18T16:04:18.717Z,1.13
2022-11-18T16:06:48.419Z,1.10
2022-11-18T16:09:19.071Z,1.23
2022-11-18T16:12:05.481Z,1.27
2022-11-18T16:14:38.048Z,1.40
2022-11-18T16:17:06.481Z,1.47
2022-11-18T16:19:35.207Z,1.10
2022-11-18T16:22:04.273Z,0.80
2022-11-18T16:24:34.172Z,1.20
2022-11-18T16:27:04.769Z,0.90
2022-11-18T16:29:33.549Z,1.23
2022-11-18T16:32:01.940Z,1.07
2022-11-18T16:34:30.367Z,1.17
2022-11-18T16:37:01.482Z,1.10
2022-11-18T16:39:30.670Z,1.20
2022-11-18T16:42:08.217Z,1.00
2022-11-18T16:44:37.584Z,1.47
2022-11-18T16:47:13.929Z,1.27
2022-11-18T16:49:44.247Z,1.20
2022-11-18T16:52:12.931Z,1.80
2022-11-18T16:54:45.697Z,1.70
2022-11-18T16:57:16.067Z,2.43
2022-11-18T16:59:44.460Z,3.40
2022-11-18T17:02:14.433Z,3.10
2022-11-18T17:04:43.808Z,3.87
2022-11-18T17:07:12.626Z,3.63
2022-11-18T17:09:41.136Z,3.17
2022-11-18T17:12:09.730Z,3.20
2022-11-18T17:14:40.273Z,3.10
2022-11-18T17:17:08.865Z,2.97
2022-11-18T17:19:37.686Z,3.00
2022-11-18T17:22:06.414Z,2.70
2022-11-18T17:24:34.864Z,2.80
2022-11-18T17:27:03.831Z,2.97
2022-11-18T17:29:32.989Z,2.60
2022-11-18T17:32:02.980Z,2.77
2022-11-18T17:34:31.398Z,2.73
2022-11-18T17:37:06.290Z,2.70
2022-11-18T17:39:35.432Z,2.50
2022-11-18T17:42:17.813Z,2.63
2022-11-18T17:44:46.651Z,2.23
2022-11-18T17:47:16.575Z,2.83
2022-11-18T17:49:44.967Z,2.63
2022-11-18T17:52:13.379Z,2.40
2022-11-18T17:54:41.858Z,2.30
2022-11-18T17:57:10.397Z,2.50
2022-11-18T17:59:38.833Z,2.83
2022-11-18T18:02:07.474Z,2.73
2022-11-18T18:04:37.608Z,3.13
2022-11-18T18:07:06.097Z,2.53
2022-11-18T18:09:34.522Z,2.63
2022-11-18T18:12:22.903Z,2.70
2022-11-18T18:14:50.617Z,2.47
2022-11-18T18:17:19.152Z,1.80
2022-11-18T18:19:49.333Z,5.13
2022-11-18T18:22:17.859Z,4.07
2022-11-18T18:24:46.333Z,5.80
2022-11-18T18:27:14.759Z,4.10
2022-11-18T18:29:43.161Z,3.03
2022-11-18T18:32:11.683Z,2.93
2022-11-18T18:34:40.216Z,2.13
2022-11-18T18:37:10.007Z,2.40
2022-11-18T18:39:38.453Z,2.10
2022-11-18T18:42:06.814Z,3.03
2022-11-18T18:44:52.553Z,3.20
2022-11-18T18:47:21.026Z,3.23
2022-11-18T18:49:49.433Z,2.70
2022-11-18T18:52:19.295Z,2.10
2022-11-18T18:54:47.953Z,2.30
2022-11-18T18:57:16.380Z,1.90
2022-11-18T18:59:44.740Z,1.90
2022-11-18T19:02:13.987Z,2.10
2022-11-18T19:04:44.780Z,1.80
2022-11-18T19:07:13.358Z,1.73
2022-11-18T19:09:43.112Z,2.03
2022-11-18T19:12:29.795Z,1.83
2022-11-18T19:14:58.218Z,1.70
2022-11-18T19:17:26.710Z,1.73
2022-11-18T19:20:12.872Z,1.60
2022-11-18T19:22:41.543Z,1.50
2022-11-18T19:25:11.839Z,1.80
2022-11-18T19:27:40.506Z,2.87
2022-11-18T19:30:12.645Z,2.13
2022-11-18T19:32:43.675Z,1.80
2022-11-18T19:35:12.632Z,2.17
2022-11-18T19:37:41.093Z,2.77
2022-11-18T19:40:12.733Z,2.60
2022-11-18T19:42:42.485Z,2.00
2022-11-18T19:45:12.586Z,2.00
2022-11-18T19:47:41.200Z,1.80
2022-11-18T19:50:11.403Z,3.50
2022-11-18T19:52:39.900Z,2.13
2022-11-18T19:55:10.789Z,2.30
2022-11-18T19:57:39.417Z,3.30
2022-11-18T20:00:10.081Z,4.00
2022-11-18T20:02:39.190Z,3.97
2022-11-18T20:05:26.067Z,3.20
2022-11-18T20:07:56.479Z,2.77
2022-11-18T20:10:26.646Z,2.17
2022-11-18T20:12:56.258Z,2.83
2022-11-18T20:15:24.744Z,2.70
2022-11-18T20:17:53.221Z,2.13
2022-11-18T20:20:22.018Z,2.00
2022-11-18T20:22:50.634Z,1.70
2022-11-18T20:25:19.201Z,2.03
2022-11-18T20:27:49.189Z,1.60
2022-11-18T20:30:18.681Z,1.60
2022-11-18T20:32:47.411Z,2.13
2022-11-18T20:35:16.076Z,1.83
2022-11-18T20:37:44.539Z,3.63
2022-11-18T20:40:13.759Z,2.30
2022-11-18T20:42:59.791Z,2.00
2022-11-18T20:45:29.605Z,2.10
2022-11-18T20:47:58.022Z,2.20
2022-11-18T20:50:26.539Z,3.03
2022-11-18T20:52:54.935Z,2.30
2022-11-18T20:55:23.542Z,1.80
2022-11-18T20:57:51.984Z,1.83
2022-11-18T21:00:20.963Z,1.93
2022-11-18T21:02:50.641Z,1.80
2022-11-18T21:05:19.399Z,1.73
2022-11-18T21:07:49.109Z,1.80
2022-11-18T21:10:18.460Z,2.30
2022-11-18T21:13:00.806Z,2.57
2022-11-18T21:15:29.417Z,3.10
2022-11-18T21:17:59.460Z,5.10
2022-11-18T21:20:45.604Z,3.60
2022-11-18T21:23:14.198Z,2.50
2022-11-18T21:25:43.247Z,2.97
2022-11-18T21:28:12.496Z,1.80
2022-11-18T21:30:41.023Z,1.47
2022-11-18T21:33:11.271Z,1.60
2022-11-18T21:35:39.817Z,1.27
2022-11-18T21:38:08.233Z,1.20
2022-11-18T21:40:36.721Z,1.40
2022-11-18T21:43:05.268Z,1.60
2022-11-18T21:45:33.784Z,1.20
2022-11-18T21:48:02.712Z,1.10
2022-11-18T21:50:32.912Z,1.30
2022-11-18T21:53:01.877Z,0.97
2022-11-18T21:55:30.930Z,1.00
2022-11-18T21:58:02.948Z,1.07
2022-11-18T22:00:33.150Z,1.33
2022-11-18T22:03:01.421Z,0.97
2022-11-18T22:05:30.032Z,1.03
2022-11-18T22:07:59.867Z,1.00
2022-11-18T22:10:28.692Z,0.90
2022-11-18T22:12:57.082Z,1.00
2022-11-18T22:15:25.447Z,0.90
2022-11-18T22:17:53.900Z,1.20
2022-11-18T22:20:22.435Z,0.93
2022-11-18T22:22:50.820Z,1.00
2022-11-18T22:25:20.655Z,1.00
2022-11-18T22:27:49.179Z,0.90
2022-11-18T22:30:18.391Z,1.00
2022-11-18T22:32:46.836Z,1.10
2022-11-18T22:35:15.359Z,1.10
2022-11-18T22:37:43.903Z,0.90
2022-11-18T22:40:14.022Z,0.90
2022-11-18T22:42:50.430Z,0.97
2022-11-18T22:45:19.008Z,1.03
2022-11-18T22:47:47.600Z,1.00
2022-11-18T22:50:17.055Z,1.10
2022-11-18T22:52:45.390Z,0.80
2022-11-18T22:55:14.263Z,1.10
2022-11-18T22:57:44.975Z,1.00
2022-11-18T23:00:15.771Z,0.93
2022-11-18T23:02:45.088Z,1.10
2022-11-18T23:05:13.505Z,1.10
2022-11-18T23:07:42.511Z,1.00
2022-11-18T23:10:11.289Z,1.00
2022-11-18T23:12:57.717Z,1.00
2022-11-18T23:15:27.656Z,1.10
2022-11-18T23:17:56.085Z,0.80
2022-11-18T23:20:25.950Z,1.10
2022-11-18T23:22:54.598Z,0.80
2022-11-18T23:25:23.531Z,1.00
2022-11-18T23:27:54.352Z,0.87
2022-11-18T23:30:23.370Z,1.07
2022-11-18T23:32:54.841Z,1.00
2022-11-18T23:35:24.473Z,1.10
2022-11-18T23:37:55.031Z,1.00
2022-11-18T23:40:24.075Z,1.03
2022-11-18T23:42:52.481Z,1.20
2022-11-18T23:45:20.903Z,1.10
2022-11-18T23:47:49.978Z,1.10
2022-11-18T23:50:20.406Z,1.30
2022-11-18T23:52:49.051Z,1.37
2022-11-18T23:55:18.241Z,1.30
2022-11-18T23:57:46.761Z,1.30
